createdAt,value
2022-10-23T00:01:46.376Z,14.43
2022-10-23T00:04:19.060Z,14.41
2022-10-23T00:06:49.503Z,14.35
2022-10-23T00:09:22.234Z,14.38
2022-10-23T00:11:52.574Z,14.33
2022-10-23T00:14:24.563Z,14.29
2022-10-23T00:16:53.979Z,14.33
2022-10-23T00:19:21.836Z,14.30
2022-10-23T00:21:49.782Z,14.22
2022-10-23T00:24:17.897Z,14.22
2022-10-23T00:26:46.100Z,14.10
2022-10-23T00:29:13.924Z,14.02
2022-10-23T00:31:43.065Z,13.95
2022-10-23T00:34:12.019Z,13.92
2022-10-23T00:36:40.051Z,13.87
2022-10-23T00:39:07.943Z,13.88
2022-10-23T00:41:35.852Z,13.87
2022-10-23T00:44:09.109Z,13.82
2022-10-23T00:46:39.266Z,13.79
2022-10-23T00:51:47.446Z,13.77
2022-10-23T00:54:24.303Z,13.75
2022-10-23T00:56:58.342Z,13.82
2022-10-23T00:59:27.778Z,13.85
2022-10-23T01:01:56.649Z,13.95
2022-10-23T01:04:27.704Z,14.03
2022-10-23T01:07:05.538Z,14.13
2022-10-23T01:09:41.653Z,14.11
2022-10-23T01:12:23.316Z,14.14
2022-10-23T01:15:07.073Z,14.11
2022-10-23T01:17:44.448Z,13.96
2022-10-23T01:20:39.725Z,13.80
2022-10-23T01:23:47.679Z,13.76
2022-10-23T01:26:37.227Z,13.68
2022-10-23T01:29:20.345Z,13.70
2022-10-23T01:31:56.361Z,13.74
2022-10-23T01:34:36.873Z,13.77
2022-10-23T01:37:10.463Z,13.85
2022-10-23T01:39:47.352Z,13.92
2022-10-23T01:42:22.401Z,13.90
2022-10-23T01:44:59.554Z,14.01
2022-10-23T01:47:34.026Z,14.02
2022-10-23T01:50:10.615Z,14.06
2022-10-23T01:52:42.320Z,14.03
2022-10-23T01:55:13.425Z,14.02
2022-10-23T01:57:45.651Z,14.01
2022-10-23T02:00:21.018Z,13.99
2022-10-23T02:02:58.781Z,13.96
2022-10-23T02:05:33.246Z,13.93
2022-10-23T02:08:03.851Z,13.86
2022-10-23T02:10:52.518Z,13.86
2022-10-23T02:13:32.254Z,13.82
2022-10-23T02:16:13.217Z,13.76
2022-10-23T02:18:54.279Z,13.77
2022-10-23T02:21:32.122Z,13.77
2022-10-23T02:24:07.534Z,13.66
2022-10-23T02:26:43.605Z,13.70
2022-10-23T02:29:25.530Z,13.60
2022-10-23T02:31:54.798Z,13.56
2022-10-23T02:34:23.278Z,13.59
2022-10-23T02:36:51.303Z,13.62
2022-10-23T02:39:26.709Z,13.66
2022-10-23T02:42:07.338Z,13.66
2022-10-23T02:44:53.806Z,13.55
2022-10-23T02:47:38.470Z,13.56
2022-10-23T02:50:18.537Z,13.53
2022-10-23T02:52:58.495Z,13.36
2022-10-23T02:55:43.234Z,13.27
2022-10-23T02:58:27.342Z,13.22
2022-10-23T03:01:09.965Z,13.19
2022-10-23T03:03:45.592Z,13.22
2022-10-23T03:06:13.821Z,13.24
2022-10-23T03:08:44.984Z,13.28
2022-10-23T03:11:12.801Z,13.28
2022-10-23T03:13:40.626Z,13.24
2022-10-23T03:16:08.445Z,13.25
2022-10-23T03:18:36.897Z,13.21
2022-10-23T03:21:06.632Z,13.22
2022-10-23T03:23:36.533Z,13.25
2022-10-23T03:26:06.028Z,13.28
2022-10-23T03:28:39.180Z,13.34
2022-10-23T03:31:07.076Z,13.38
2022-10-23T03:33:35.057Z,13.36
2022-10-23T03:36:13.118Z,13.32
2022-10-23T03:38:41.336Z,13.39
2022-10-23T03:41:09.180Z,13.45
2022-10-23T03:43:38.454Z,13.50
2022-10-23T03:46:12.282Z,13.47
2022-10-23T03:48:42.028Z,13.43
2022-10-23T03:51:09.933Z,13.39
2022-10-23T03:53:42.510Z,13.42
2022-10-23T03:56:11.486Z,13.44
2022-10-23T03:58:40.635Z,13.48
2022-10-23T04:01:08.993Z,13.57
2022-10-23T04:03:38.399Z,13.52
2022-10-23T04:06:07.323Z,13.45
2022-10-23T04:08:36.186Z,13.28
2022-10-23T04:11:11.672Z,13.30
2022-10-23T04:13:46.457Z,13.28
2022-10-23T04:16:15.188Z,13.28
2022-10-23T04:18:45.964Z,13.25
2022-10-23T04:21:13.830Z,13.17
2022-10-23T04:23:41.884Z,13.26
2022-10-23T04:26:15.876Z,13.27
2022-10-23T04:28:43.652Z,13.20
2022-10-23T04:31:11.622Z,13.14
2022-10-23T04:33:42.128Z,13.03
2022-10-23T04:36:10.901Z,12.95
2022-10-23T04:38:41.114Z,12.98
2022-10-23T04:41:09.092Z,12.97
2022-10-23T04:43:38.282Z,12.98
2022-10-23T04:46:06.680Z,12.99
2022-10-23T04:48:35.365Z,12.96
2022-10-23T04:51:25.915Z,12.93
2022-10-23T04:54:06.342Z,12.82
2022-10-23T04:57:00.598Z,12.91
2022-10-23T04:59:37.419Z,12.99
2022-10-23T05:02:07.384Z,13.01
2022-10-23T05:04:35.245Z,13.01
2022-10-23T05:07:37.659Z,13.00
2022-10-23T05:10:15.260Z,13.04
2022-10-23T05:12:50.236Z,12.97
2022-10-23T05:15:19.413Z,12.89
2022-10-23T05:17:52.347Z,12.78
2022-10-23T05:20:26.692Z,12.65
2022-10-23T05:22:59.497Z,12.59
2022-10-23T05:25:30.897Z,12.55
2022-10-23T05:28:12.694Z,12.35
2022-10-23T05:30:43.139Z,12.36
2022-10-23T05:33:11.792Z,12.42
2022-10-23T05:35:45.337Z,12.43
2022-10-23T05:38:16.608Z,12.50
2022-10-23T05:40:45.157Z,12.55
2022-10-23T05:43:19.343Z,12.65
2022-10-23T05:46:11.617Z,12.83
2022-10-23T05:49:07.305Z,12.87
2022-10-23T05:51:50.705Z,12.98
2022-10-23T05:54:41.450Z,12.97
2022-10-23T05:57:23.869Z,12.93
2022-10-23T05:59:53.833Z,13.01
2022-10-23T06:02:25.955Z,12.98
2022-10-23T06:05:00.742Z,13.04
2022-10-23T06:07:47.820Z,13.06
2022-10-23T06:10:15.770Z,13.08
2022-10-23T06:12:47.057Z,13.15
2022-10-23T06:15:18.525Z,13.20
2022-10-23T06:18:02.505Z,13.21
2022-10-23T06:20:37.313Z,13.26
2022-10-23T06:23:13.092Z,13.32
2022-10-23T06:25:59.409Z,13.42
2022-10-23T06:28:37.192Z,13.49
2022-10-23T06:31:06.616Z,13.48
2022-10-23T06:33:36.010Z,13.56
2022-10-23T06:36:10.182Z,13.49
2022-10-23T06:38:41.674Z,13.56
2022-10-23T06:41:16.395Z,13.55
2022-10-23T06:43:49.051Z,13.66
2022-10-23T06:46:24.385Z,13.64
2022-10-23T06:49:12.063Z,13.67
2022-10-23T06:51:46.909Z,13.63
2022-10-23T06:54:15.843Z,13.63
2022-10-23T06:56:49.315Z,13.52
2022-10-23T06:59:21.005Z,13.58
2022-10-23T07:01:51.592Z,13.60
2022-10-23T07:04:20.893Z,13.60
2022-10-23T07:06:49.715Z,13.47
2022-10-23T07:09:24.598Z,13.37
2022-10-23T07:11:52.489Z,13.34
2022-10-23T07:14:24.379Z,13.39
2022-10-23T07:16:54.415Z,13.35
2022-10-23T07:19:24.423Z,13.38
2022-10-23T07:21:56.721Z,13.45
2022-10-23T07:24:46.281Z,13.56
2022-10-23T07:27:28.245Z,13.72
2022-10-23T07:29:58.272Z,13.70
2022-10-23T07:32:30.896Z,13.79
2022-10-23T07:35:37.159Z,13.78
2022-10-23T07:38:13.782Z,13.80
2022-10-23T07:40:45.735Z,13.84
2022-10-23T07:43:18.461Z,13.95
2022-10-23T07:45:48.991Z,14.13
2022-10-23T07:48:38.516Z,14.24
2022-10-23T07:51:12.305Z,14.37
2022-10-23T07:53:45.287Z,14.43
2022-10-23T07:56:31.571Z,14.46
2022-10-23T07:59:20.912Z,14.57
2022-10-23T08:01:56.458Z,14.67
2022-10-23T08:04:30.015Z,14.53
2022-10-23T08:07:07.950Z,14.53
2022-10-23T08:09:41.170Z,14.46
2022-10-23T08:12:09.995Z,14.49
2022-10-23T08:14:39.137Z,14.61
2022-10-23T08:17:09.901Z,14.54
2022-10-23T08:20:03.576Z,14.49
2022-10-23T08:22:39.202Z,14.70
2022-10-23T08:25:08.099Z,14.83
2022-10-23T08:27:37.057Z,14.95
2022-10-23T08:30:06.806Z,15.08
2022-10-23T08:32:34.769Z,15.09
2022-10-23T08:35:04.504Z,15.10
2022-10-23T08:37:36.315Z,15.03
2022-10-23T08:40:07.283Z,15.04
2022-10-23T08:43:21.951Z,15.05
2022-10-23T08:46:12.990Z,14.89
2022-10-23T08:49:28.734Z,15.00
2022-10-23T08:52:15.679Z,15.11
2022-10-23T08:55:00.140Z,15.06
2022-10-23T08:57:40.086Z,15.13
2022-10-23T09:00:15.891Z,14.99
2022-10-23T09:02:47.183Z,15.13
2022-10-23T09:05:19.947Z,15.29
2022-10-23T09:08:08.684Z,15.45
2022-10-23T09:10:56.543Z,15.73
2022-10-23T09:13:56.133Z,15.71
2022-10-23T09:16:43.066Z,15.66
2022-10-23T09:19:17.121Z,15.74
2022-10-23T09:21:49.888Z,15.81
2022-10-23T09:24:20.890Z,15.97
2022-10-23T09:26:53.129Z,16.08
2022-10-23T09:29:29.021Z,16.10
2022-10-23T09:32:00.166Z,16.11
2022-10-23T09:34:31.532Z,16.39
2022-10-23T09:37:03.020Z,16.38
2022-10-23T09:39:33.953Z,16.35
2022-10-23T09:42:20.886Z,16.73
2022-10-23T09:44:52.644Z,16.79
2022-10-23T09:47:24.482Z,16.81
2022-10-23T09:49:55.084Z,16.92
2022-10-23T09:52:33.256Z,17.00
2022-10-23T09:55:18.477Z,17.00
2022-10-23T09:57:47.819Z,17.17
2022-10-23T10:00:21.153Z,17.19
2022-10-23T10:02:58.974Z,17.25
2022-10-23T10:06:00.959Z,17.35
2022-10-23T10:08:41.330Z,17.42
2022-10-23T10:11:19.951Z,17.54
2022-10-23T10:14:04.732Z,17.47
2022-10-23T10:16:50.529Z,17.50
2022-10-23T10:19:48.754Z,17.58
2022-10-23T10:22:32.349Z,17.58
2022-10-23T10:25:11.366Z,17.70
2022-10-23T10:27:56.870Z,17.80
2022-10-23T10:30:34.172Z,17.85
2022-10-23T10:33:14.576Z,17.94
2022-10-23T10:35:53.533Z,18.11
2022-10-23T10:38:48.303Z,18.27
2022-10-23T10:41:37.375Z,18.36
2022-10-23T10:44:35.925Z,18.41
2022-10-23T10:47:21.045Z,18.59
2022-10-23T10:50:07.574Z,18.62
2022-10-23T10:53:02.421Z,18.56
2022-10-23T10:55:38.357Z,18.59
2022-10-23T10:58:18.620Z,18.64
2022-10-23T11:00:53.009Z,18.70
2022-10-23T11:03:39.171Z,18.81
2022-10-23T11:06:16.848Z,18.79
2022-10-23T11:08:57.477Z,18.89
2022-10-23T11:11:35.861Z,18.85
2022-10-23T11:14:04.286Z,18.97
2022-10-23T11:16:38.056Z,18.97
2022-10-23T11:19:18.425Z,18.95
2022-10-23T11:21:58.136Z,18.99
2022-10-23T11:25:05.938Z,19.04
2022-10-23T11:28:10.209Z,19.07
2022-10-23T11:30:59.353Z,19.03
2022-10-23T11:34:13.790Z,19.22
2022-10-23T11:36:50.324Z,19.21
2022-10-23T11:39:31.746Z,19.23
2022-10-23T11:42:15.693Z,19.35
2022-10-23T11:44:46.706Z,19.32
2022-10-23T11:47:39.282Z,19.27
2022-10-23T11:50:31.071Z,19.34
2022-10-23T11:53:20.888Z,19.43
2022-10-23T11:56:25.460Z,19.45
2022-10-23T11:58:57.162Z,19.29
2022-10-23T12:01:33.891Z,19.37
2022-10-23T12:04:16.845Z,19.32
2022-10-23T12:06:50.164Z,19.44
2022-10-23T12:09:37.373Z,19.58
2022-10-23T12:12:17.788Z,19.71
2022-10-23T12:14:48.686Z,19.41
2022-10-23T12:17:33.357Z,19.46
2022-10-23T12:20:25.759Z,19.47
2022-10-23T12:23:34.241Z,19.46
2022-10-23T12:26:28.972Z,19.50
2022-10-23T12:29:11.947Z,19.58
2022-10-23T12:31:54.057Z,19.64
2022-10-23T12:34:45.015Z,19.63
2022-10-23T12:37:45.470Z,19.55
2022-10-23T12:40:13.575Z,19.57
2022-10-23T12:42:54.983Z,19.54
2022-10-23T12:45:27.488Z,19.66
2022-10-23T12:47:55.590Z,19.68
2022-10-23T12:50:28.191Z,19.65
2022-10-23T12:52:58.753Z,19.68
2022-10-23T12:55:35.062Z,19.74
2022-10-23T12:58:05.212Z,19.87
2022-10-23T13:00:33.254Z,19.78
2022-10-23T13:03:03.948Z,19.95
2022-10-23T13:05:32.696Z,19.87
2022-10-23T13:08:02.547Z,19.84
2022-10-23T13:10:50.225Z,19.92
2022-10-23T13:13:24.355Z,19.97
2022-10-23T13:15:52.204Z,20.02
2022-10-23T13:18:21.664Z,20.10
2022-10-23T13:20:59.608Z,20.07
2022-10-23T13:23:31.383Z,20.16
2022-10-23T13:26:01.823Z,20.20
2022-10-23T13:28:34.953Z,20.28
2022-10-23T13:31:25.242Z,20.52
2022-10-23T13:34:16.220Z,20.69
2022-10-23T13:36:54.495Z,21.06
2022-10-23T13:39:26.165Z,21.40
2022-10-23T13:41:54.206Z,21.44
2022-10-23T13:44:25.003Z,21.57
2022-10-23T13:46:52.972Z,21.67
2022-10-23T13:49:21.026Z,21.73
2022-10-23T13:52:22.305Z,21.61
2022-10-23T13:54:48.278Z,21.68
2022-10-23T13:57:35.249Z,21.60
2022-10-23T14:00:06.952Z,21.46
2022-10-23T14:02:40.189Z,21.42
2022-10-23T14:05:08.652Z,21.49
2022-10-23T14:07:36.911Z,21.56
2022-10-23T14:10:07.651Z,21.64
2022-10-23T14:12:42.055Z,21.56
2022-10-23T14:15:13.848Z,21.64
2022-10-23T14:17:41.663Z,21.60
2022-10-23T14:20:11.864Z,21.60
2022-10-23T14:22:42.049Z,21.55
2022-10-23T14:25:12.497Z,21.55
2022-10-23T14:27:40.344Z,21.49
2022-10-23T14:30:10.082Z,21.54
2022-10-23T14:32:39.750Z,21.48
2022-10-23T14:35:08.656Z,21.50
2022-10-23T14:37:36.735Z,21.55
2022-10-23T14:40:06.514Z,21.51
2022-10-23T14:42:34.518Z,21.52
2022-10-23T14:45:03.595Z,21.55
2022-10-23T14:47:31.946Z,21.56
2022-10-23T14:50:01.117Z,21.56
2022-10-23T14:52:29.024Z,21.50
2022-10-23T14:54:56.840Z,21.37
2022-10-23T14:57:25.022Z,21.34
2022-10-23T14:59:52.793Z,21.27
2022-10-23T15:02:20.604Z,21.24
2022-10-23T15:04:48.391Z,21.23
2022-10-23T15:07:18.312Z,21.23
2022-10-23T15:09:46.200Z,21.13
2022-10-23T15:12:13.974Z,21.12
2022-10-23T15:14:41.732Z,20.90
2022-10-23T15:17:14.547Z,20.85
2022-10-23T15:19:43.690Z,20.74
2022-10-23T15:22:11.666Z,20.68
2022-10-23T15:24:41.018Z,20.63
2022-10-23T15:29:37.990Z,20.55
2022-10-23T15:32:07.733Z,20.56
2022-10-23T15:34:37.822Z,20.56
2022-10-23T15:37:06.041Z,20.52
2022-10-23T15:39:35.472Z,20.50
2022-10-23T15:42:09.414Z,20.53
2022-10-23T15:44:39.649Z,20.43
2022-10-23T15:47:07.684Z,20.34
2022-10-23T15:49:36.869Z,20.31
2022-10-23T15:52:05.006Z,20.29
2022-10-23T15:54:33.244Z,20.26
2022-10-23T15:57:03.699Z,20.24
2022-10-23T15:59:33.846Z,20.15
2022-10-23T16:02:01.856Z,20.21
2022-10-23T16:04:30.307Z,20.17
2022-10-23T16:06:58.235Z,20.22
2022-10-23T16:09:26.225Z,20.25
2022-10-23T16:11:54.085Z,20.32
2022-10-23T16:14:21.904Z,20.31
2022-10-23T16:16:51.288Z,20.39
2022-10-23T16:19:20.208Z,20.43
2022-10-23T16:21:48.305Z,20.44
2022-10-23T16:24:16.986Z,20.43
2022-10-23T16:26:50.225Z,20.36
2022-10-23T16:29:19.017Z,20.27
2022-10-23T16:31:46.848Z,20.19
2022-10-23T16:34:16.457Z,20.13
2022-10-23T16:36:45.057Z,20.03
2022-10-23T16:39:33.786Z,20.02
2022-10-23T16:42:20.258Z,19.98
2022-10-23T16:45:12.082Z,20.08
2022-10-23T16:47:39.972Z,20.10
2022-10-23T16:50:11.564Z,20.12
2022-10-23T16:52:39.832Z,20.15
2022-10-23T16:55:10.033Z,20.16
2022-10-23T16:57:38.424Z,20.19
2022-10-23T17:00:07.952Z,20.15
2022-10-23T17:02:38.055Z,20.17
2022-10-23T17:05:08.386Z,20.13
2022-10-23T17:07:37.862Z,20.05
2022-10-23T17:10:12.693Z,20.00
2022-10-23T17:12:40.549Z,19.90
2022-10-23T17:15:10.534Z,19.83
2022-10-23T17:17:38.429Z,19.72
2022-10-23T17:20:07.607Z,19.62
2022-10-23T17:22:39.005Z,19.56
2022-10-23T17:25:10.729Z,19.53
2022-10-23T17:27:39.097Z,19.35
2022-10-23T17:30:12.633Z,19.38
2022-10-23T17:32:41.505Z,19.20
2022-10-23T17:35:11.900Z,19.11
2022-10-23T17:37:41.316Z,19.03
2022-10-23T17:40:11.525Z,18.96
2022-10-23T17:42:40.605Z,18.84
2022-10-23T17:45:10.151Z,18.69
2022-10-23T17:47:41.287Z,18.53
2022-10-23T17:50:13.006Z,18.43
2022-10-23T17:52:42.890Z,18.39
2022-10-23T17:55:11.473Z,18.34
2022-10-23T17:57:40.008Z,18.22
2022-10-23T18:00:09.884Z,18.05
2022-10-23T18:02:44.680Z,17.93
2022-10-23T18:05:13.054Z,17.92
2022-10-23T18:07:42.536Z,17.92
2022-10-23T18:10:11.781Z,17.88
2022-10-23T18:12:40.500Z,17.88
2022-10-23T18:15:11.212Z,17.83
2022-10-23T18:17:39.027Z,17.80
2022-10-23T18:20:08.588Z,17.78
2022-10-23T18:22:36.863Z,17.79
2022-10-23T18:25:07.610Z,17.78
2022-10-23T18:27:36.713Z,17.77
2022-10-23T18:30:06.706Z,17.75
2022-10-23T18:32:34.673Z,17.84
2022-10-23T18:35:02.811Z,17.81
2022-10-23T18:37:38.978Z,17.83
2022-10-23T18:40:13.326Z,17.87
2022-10-23T18:42:42.701Z,17.87
2022-10-23T18:45:14.383Z,17.89
2022-10-23T18:47:42.788Z,17.93
2022-10-23T18:50:12.221Z,17.86
2022-10-23T18:52:42.758Z,17.88
2022-10-23T18:55:13.561Z,17.83
2022-10-23T18:57:42.032Z,17.76
2022-10-23T19:00:13.254Z,17.78
2022-10-23T19:02:47.719Z,17.71
2022-10-23T19:05:19.363Z,17.68
2022-10-23T19:07:50.611Z,17.72
2022-10-23T19:10:23.919Z,17.69
2022-10-23T19:12:52.483Z,17.66
2022-10-23T19:15:20.651Z,17.64
2022-10-23T19:17:55.175Z,17.65
2022-10-23T19:23:02.396Z,17.62
2022-10-23T19:25:37.650Z,17.63
2022-10-23T19:28:06.558Z,17.54
2022-10-23T19:30:35.306Z,17.48
2022-10-23T19:33:04.221Z,17.49
2022-10-23T19:35:32.560Z,17.52
2022-10-23T19:38:00.390Z,17.48
2022-10-23T19:40:28.305Z,17.53
2022-10-23T19:42:57.924Z,17.53
2022-10-23T19:45:25.937Z,17.43
2022-10-23T19:47:54.204Z,17.41
2022-10-23T19:50:22.123Z,17.34
2022-10-23T19:52:51.404Z,17.29
2022-10-23T19:55:22.077Z,17.25
2022-10-23T19:57:49.913Z,17.28
2022-10-23T20:00:20.360Z,17.39
2022-10-23T20:02:50.215Z,17.38
2022-10-23T20:05:22.169Z,17.32
2022-10-23T20:07:51.338Z,17.28
2022-10-23T20:10:19.459Z,17.22
2022-10-23T20:12:56.878Z,17.27
2022-10-23T20:15:41.080Z,17.23
2022-10-23T20:18:11.549Z,17.25
2022-10-23T20:20:41.643Z,17.21
2022-10-23T20:23:12.389Z,17.19
2022-10-23T20:25:40.231Z,17.20
2022-10-23T20:28:10.244Z,17.18
2022-10-23T20:30:43.630Z,17.17
2022-10-23T20:33:12.052Z,17.21
2022-10-23T20:35:41.424Z,17.20
2022-10-23T20:38:09.974Z,17.28
2022-10-23T20:40:39.203Z,17.33
2022-10-23T20:43:07.223Z,17.39
2022-10-23T20:45:35.062Z,17.44
2022-10-23T20:48:05.122Z,17.43
2022-10-23T20:50:34.616Z,17.45
2022-10-23T20:53:02.477Z,17.47
2022-10-23T20:55:30.338Z,17.58
2022-10-23T20:57:58.165Z,17.57
2022-10-23T21:00:26.370Z,17.49
2022-10-23T21:02:54.502Z,17.50
2022-10-23T21:05:23.855Z,17.54
2022-10-23T21:07:51.683Z,17.52
2022-10-23T21:10:19.602Z,17.59
2022-10-23T21:12:47.403Z,17.69
2022-10-23T21:15:15.355Z,17.59
2022-10-23T21:17:43.176Z,17.64
2022-10-23T21:20:11.002Z,17.61
2022-10-23T21:22:40.405Z,17.52
2022-10-23T21:25:09.427Z,17.45
2022-10-23T21:27:37.638Z,17.46
2022-10-23T21:30:08.141Z,17.31
2022-10-23T21:32:36.467Z,17.33
2022-10-23T21:35:06.207Z,17.25
2022-10-23T21:37:34.036Z,17.21
2022-10-23T21:40:04.056Z,17.32
2022-10-23T21:42:33.589Z,17.24
2022-10-23T21:45:01.468Z,17.29
2022-10-23T21:47:29.369Z,17.31
2022-10-23T21:49:57.133Z,17.27
2022-10-23T21:52:24.962Z,17.22
2022-10-23T21:54:53.602Z,17.23
2022-10-23T21:57:22.758Z,17.17
2022-10-23T21:59:50.637Z,17.13
2022-10-23T22:02:18.831Z,17.10
2022-10-23T22:04:46.903Z,17.10
2022-10-23T22:07:14.933Z,17.05
2022-10-23T22:09:44.570Z,17.02
2022-10-23T22:12:12.788Z,17.02
2022-10-23T22:14:42.615Z,17.00
2022-10-23T22:17:10.446Z,17.03
2022-10-23T22:19:38.510Z,17.06
2022-10-23T22:22:06.502Z,17.09
2022-10-23T22:24:36.583Z,17.02
2022-10-23T22:27:05.074Z,16.98
2022-10-23T22:29:32.871Z,16.90
2022-10-23T22:32:02.280Z,16.80
2022-10-23T22:37:18.841Z,16.73
2022-10-23T22:39:50.411Z,16.67
2022-10-23T22:42:18.366Z,16.61
2022-10-23T22:44:46.235Z,16.54
2022-10-23T22:47:15.425Z,16.48
2022-10-23T22:49:43.209Z,16.45
2022-10-23T22:52:11.033Z,16.47
2022-10-23T22:54:39.770Z,16.43
2022-10-23T22:57:07.632Z,16.41
2022-10-23T22:59:35.692Z,16.34
2022-10-23T23:02:03.976Z,16.34
2022-10-23T23:04:37.839Z,16.23
2022-10-23T23:07:08.867Z,16.31
2022-10-23T23:09:39.114Z,16.29
2022-10-23T23:12:10.217Z,16.31
2022-10-23T23:14:39.970Z,16.34
2022-10-23T23:17:09.752Z,16.34
2022-10-23T23:19:39.538Z,16.37
2022-10-23T23:22:08.067Z,16.36
2022-10-23T23:24:36.126Z,16.32
2022-10-23T23:27:04.245Z,16.27
2022-10-23T23:29:32.237Z,16.22
2022-10-23T23:32:00.389Z,16.16
2022-10-23T23:34:30.375Z,16.20
2022-10-23T23:36:59.612Z,16.14
2022-10-23T23:39:28.531Z,16.05
2022-10-23T23:41:56.536Z,16.01
2022-10-23T23:44:24.496Z,15.99
2022-10-23T23:46:53.045Z,16.01
2022-10-23T23:49:20.890Z,16.00
2022-10-23T23:51:48.878Z,16.00
2022-10-23T23:54:18.287Z,16.03
2022-10-23T23:56:46.064Z,16.03
2022-10-23T23:59:14.911Z,16.01
